Flight Track Log - Related Links

Times and Time Zones

All times are in EDT time to prevent confusion due to time zone crossing. See the UAL33 flight status page for this flight to view local times or setup timezone preferences in your user account.

Time Position Orientation Groundspeed Altitude Reporting Facility
EDT Latitude Longitude Course Direction KTS MPH feet Rate Location/Type
Sun 05:50:48 AM 35.8602 140.3065 329° Northwest 224 258 4,400  Level FlightAware ADS-B
Sun 05:51:00 AM 35.5871 140.8889 112° Southeast  Level FlightAware Approximate
Sun 05:51:09 AM 35.8813 140.2951 347° North 247 284 5,000  Level FlightAware ADS-B
Sun 05:51:30 AM 35.9067 140.3001 24° Northeast 264 304 6,000 2,400 Climbing FlightAware ADS-B
Sun 05:51:49 AM 35.9232 140.3201 58° Northeast 282 325 6,600 1,650 Climbing FlightAware ADS-B
Sun 05:52:10 AM 35.9300 140.3541 91° East 298 343 7,100 2,100 Climbing FlightAware ADS-B
Sun 05:52:29 AM 35.9229 140.3849 112° Southeast 300 345 8,000 2,850 Climbing FlightAware ADS-B
Sun 05:52:50 AM 35.9113 140.4179 112° Southeast 299 344 9,000 2,700 Climbing FlightAware ADS-B
Sun 05:53:09 AM 35.9007 140.4479 113° Southeast 304 350 9,800 1,759 Climbing FlightAware ADS-B
Sun 05:53:48 AM 35.8649 140.5001 140° Southeast 333 383 10,700 963 Climbing FlightAware ADS-B
Sun 05:54:30 AM 35.8153 140.5609 125° Southeast 394 453 11,100 1,000 Climbing FlightAware ADS-B
Sun 05:55:48 AM 35.7214 140.7189 126° Southeast 466 536 12,700 1,538 Climbing FlightAware ADS-B
Sun 05:56:27 AM 35.6704 140.8071 118° Southeast 481 554 14,100 2,066 Climbing FlightAware ADS-B
Sun 05:56:49 AM 35.6532 140.8593 104° East 481 554 14,800 1,518 Climbing FlightAware ADS-B
Sun 05:57:50 AM 35.6390 141.0277 94° East 488 562 16,200 1,545 Climbing FlightAware ADS-B
Sun 05:58:30 AM 35.6320 141.1359 94° East 503 579 17,400 1,866 Climbing FlightAware ADS-B
Sun 05:59:49 AM 35.6162 141.3697 94° East 521 600 19,900 1,831 Climbing FlightAware ADS-B
Sun 06:00:28 AM 35.6082 141.4853 94° East 530 610 21,000 1,725 Climbing FlightAware ADS-B
Sun 06:01:09 AM 35.5995 141.6095 95° East 541 623 22,200 1,630 Climbing FlightAware ADS-B
Sun 06:01:49 AM 35.5907 141.7315 95° East 549 632 23,200 1,556 Climbing FlightAware ADS-B
Sun 06:02:30 AM 35.5814 141.8608 95° East 556 640 24,300 1,423 Climbing FlightAware ADS-B
Sun 06:03:26 AM 35.5685 142.0365 95° East 567 652 25,500 1,218 Climbing FlightAware ADS-B
Sun 06:04:43 AM 35.5496 142.2889 95° East 581 669 27,000 1,322 Climbing FlightAware ADS-B
Sun 06:05:24 AM 35.5396 142.4221 95° East 582 670 28,100 1,471 Climbing FlightAware ADS-B
Sun 06:06:25 AM 35.5239 142.6237 95° East 587 676 29,500 1,314 Climbing FlightAware ADS-B
Sun 06:07:09 AM 35.5122 142.7711 95° East 589 678 30,400 1,299 Climbing FlightAware ADS-B
Sun 06:08:02 AM 35.4983 142.9441 95° East 588 677 31,600 45 Climbing FlightAware ADS-B
Sun 06:10:00 AM 35.6551 143.2452 57° Northeast  Level Estimated
Sun 06:11:00 AM 35.7346 143.3988 57° Northeast  Level Estimated
Sun 06:12:00 AM 35.8138 143.5526 58° Northeast  Level Estimated
Sun 06:13:00 AM 35.8929 143.7068 58° Northeast  Level Estimated
Sun 06:14:00 AM 35.9718 143.8613 58° Northeast  Level Estimated
Sun 06:15:00 AM 36.0504 144.0161 58° Northeast  Level Estimated
Sun 06:16:00 AM 36.1289 144.1711 58° Northeast  Level Estimated
Sun 06:17:00 AM 36.2072 144.3265 58° Northeast  Level Estimated
Sun 06:18:00 AM 36.2852 144.4823 58° Northeast  Level Estimated
Sun 06:19:00 AM 36.3631 144.6383 58° Northeast  Level Estimated
Sun 06:20:00 AM 36.4408 144.7946 58° Northeast  Level Estimated
Sun 06:21:00 AM 36.5182 144.9513 58° Northeast  Level Estimated
Sun 06:22:00 AM 36.5962 145.1097 58° Northeast  Level Estimated
Sun 06:23:00 AM 36.6739 145.2684 59° Northeast  Level Estimated
Sun 06:24:00 AM 36.7515 145.4274 59° Northeast  Level Estimated
Sun 06:25:00 AM 36.8289 145.5871 59° Northeast  Level Estimated
Sun 06:26:00 AM 36.9062 145.7471 59° Northeast  Level Estimated
Sun 06:27:00 AM 36.9832 145.9074 59° Northeast  Level Estimated
Sun 06:28:00 AM 37.0601 146.0680 59° Northeast  Level Estimated
Sun 06:29:00 AM 37.1367 146.2290 59° Northeast  Level Estimated
Sun 06:30:00 AM 37.2131 146.3903 59° Northeast  Level Estimated
Sun 06:31:00 AM 37.2893 146.5519 59° Northeast  Level Estimated
Sun 06:32:00 AM 37.3652 146.7138 59° Northeast  Level Estimated
Sun 06:33:00 AM 37.4409 146.8761 60° Northeast  Level Estimated
Sun 06:34:00 AM 37.5164 147.0387 60° Northeast  Level Estimated
Sun 06:35:00 AM 37.5917 147.2016 60° Northeast  Level Estimated
Sun 06:36:00 AM 37.6668 147.3649 60° Northeast  Level Estimated
Sun 06:37:00 AM 37.7416 147.5285 60° Northeast  Level Estimated
Sun 06:38:00 AM 37.8162 147.6924 60° Northeast  Level Estimated
Sun 06:39:00 AM 37.8906 147.8566 60° Northeast  Level Estimated
Sun 06:40:00 AM 37.9648 148.0212 60° Northeast  Level Estimated
Sun 06:41:00 AM 38.0387 148.1861 60° Northeast  Level Estimated
Sun 06:42:00 AM 38.1124 148.3513 60° Northeast  Level Estimated
Sun 06:43:00 AM 38.1858 148.5169 61° Northeast  Level Estimated
Sun 06:44:00 AM 38.2591 148.6828 61° Northeast  Level Estimated
Sun 06:45:00 AM 38.3321 148.8491 61° Northeast  Level Estimated
Sun 06:46:00 AM 38.4048 149.0157 61° Northeast  Level Estimated
Sun 06:47:00 AM 38.4774 149.1826 61° Northeast  Level Estimated
Sun 06:48:00 AM 38.5496 149.3498 61° Northeast  Level Estimated
Sun 06:49:00 AM 38.6217 149.5174 61° Northeast  Level Estimated
Sun 06:50:00 AM 38.6935 149.6853 61° Northeast  Level Estimated
Sun 06:51:00 AM 38.7651 149.8536 61° Northeast  Level Estimated
Sun 06:52:00 AM 38.8364 150.0222 61° Northeast  Level Estimated
Sun 06:53:00 AM 38.9075 150.1911 62° Northeast  Level Estimated
Sun 06:54:00 AM 38.9783 150.3604 62° Northeast  Level Estimated
Sun 06:55:00 AM 39.0489 150.5300 62° Northeast  Level Estimated
Sun 06:56:00 AM 39.1193 150.7000 62° Northeast  Level Estimated
Sun 06:57:00 AM 39.1894 150.8702 62° Northeast  Level Estimated
Sun 06:58:00 AM 39.2592 151.0409 62° Northeast  Level Estimated
Sun 06:59:00 AM 39.3288 151.2118 62° Northeast  Level Estimated
Sun 07:00:00 AM 39.3982 151.3831 62° Northeast  Level Estimated
Sun 07:01:00 AM 39.4673 151.5548 62° Northeast  Level Estimated
Sun 07:02:00 AM 39.5361 151.7268 63° Northeast  Level Estimated
Sun 07:03:00 AM 39.6047 151.8991 63° Northeast  Level Estimated
Sun 07:04:00 AM 39.6730 152.0718 63° Northeast  Level Estimated
Sun 07:05:00 AM 39.7411 152.2448 63° Northeast  Level Estimated
Sun 07:06:00 AM 39.8089 152.4181 63° Northeast  Level Estimated
Sun 07:07:00 AM 39.8765 152.5918 63° Northeast  Level Estimated
Sun 07:08:00 AM 39.9438 152.7659 63° Northeast  Level Estimated
Sun 07:09:00 AM 40.0108 152.9402 63° Northeast  Level Estimated
Sun 07:10:00 AM 40.0776 153.1150 63° Northeast  Level Estimated
Sun 07:11:00 AM 40.1441 153.2900 64° Northeast  Level Estimated
Sun 07:12:00 AM 40.2104 153.4654 64° Northeast  Level Estimated
Sun 07:13:00 AM 40.2764 153.6412 64° Northeast  Level Estimated
Sun 07:14:00 AM 40.3421 153.8173 64° Northeast  Level Estimated
Sun 07:15:00 AM 40.4076 153.9937 64° Northeast  Level Estimated
Sun 07:16:00 AM 40.4728 154.1705 64° Northeast  Level Estimated
Sun 07:17:00 AM 40.5377 154.3476 64° Northeast  Level Estimated
Sun 07:18:00 AM 40.6023 154.5251 64° Northeast  Level Estimated
Sun 07:19:00 AM 40.6667 154.7029 64° Northeast  Level Estimated
Sun 07:20:00 AM 40.7308 154.8810 65° Northeast  Level Estimated
Sun 07:21:00 AM 40.7946 155.0595 65° Northeast  Level Estimated
Sun 07:22:00 AM 40.8582 155.2384 65° Northeast  Level Estimated
Sun 07:23:00 AM 40.9215 155.4175 65° Northeast  Level Estimated
Sun 07:24:00 AM 40.9845 155.5970 65° Northeast  Level Estimated
Sun 07:25:00 AM 41.0472 155.7769 65° Northeast  Level Estimated
Sun 07:26:00 AM 41.1096 155.9571 65° Northeast  Level Estimated
Sun 07:27:00 AM 41.1718 156.1376 65° Northeast  Level Estimated
Sun 07:28:00 AM 41.2337 156.3185 65° Northeast  Level Estimated
Sun 07:29:00 AM 41.2952 156.4998 66° East  Level Estimated
Sun 07:30:00 AM 41.3565 156.6813 66° East  Level Estimated
Sun 07:31:00 AM 41.4176 156.8633 66° East  Level Estimated
Sun 07:32:00 AM 41.4783 157.0455 66° East  Level Estimated
Sun 07:33:00 AM 41.5387 157.2281 66° East  Level Estimated
Sun 07:34:00 AM 41.5989 157.4111 66° East  Level Estimated
Sun 07:35:00 AM 41.6588 157.5943 66° East  Level Estimated
Sun 07:36:00 AM 41.7183 157.7779 66° East  Level Estimated
Sun 07:37:00 AM 41.7776 157.9619 67° East  Level Estimated
Sun 07:38:00 AM 41.8366 158.1462 67° East  Level Estimated
Sun 07:39:00 AM 41.8953 158.3308 67° East  Level Estimated
Sun 07:40:00 AM 41.9537 158.5158 67° East  Level Estimated
Sun 07:41:00 AM 42.0118 158.7011 67° East  Level Estimated
Sun 07:42:00 AM 42.0696 158.8868 67° East  Level Estimated
Sun 07:43:00 AM 42.1271 159.0728 67° East  Level Estimated
Sun 07:44:00 AM 42.1843 159.2591 67° East  Level Estimated
Sun 07:45:00 AM 42.2412 159.4458 68° East  Level Estimated
Sun 07:46:00 AM 42.2978 159.6328 68° East  Level Estimated
Sun 07:47:00 AM 42.3541 159.8201 68° East  Level Estimated
Sun 07:48:00 AM 42.4101 160.0078 68° East  Level Estimated
Sun 07:49:00 AM 42.4657 160.1958 68° East  Level Estimated
Sun 07:50:00 AM 42.5211 160.3841 68° East  Level Estimated
Sun 07:51:00 AM 42.5762 160.5728 68° East  Level Estimated
Sun 07:52:00 AM 42.6309 160.7618 68° East  Level Estimated
Sun 07:53:00 AM 42.6853 160.9511 69° East  Level Estimated
Sun 07:54:00 AM 42.7395 161.1408 69° East  Level Estimated
Sun 07:55:00 AM 42.7933 161.3308 69° East  Level Estimated
Sun 07:56:00 AM 42.8468 161.5211 69° East  Level Estimated
Sun 07:57:00 AM 42.9000 161.7117 69° East  Level Estimated
Sun 07:58:00 AM 42.9528 161.9027 69° East  Level Estimated
Sun 07:59:00 AM 43.0054 162.0940 69° East  Level Estimated
Sun 08:00:00 AM 43.0576 162.2857 69° East  Level Estimated
Sun 08:01:00 AM 43.1095 162.4776 70° East  Level Estimated
Sun 08:02:00 AM 43.1611 162.6699 70° East  Level Estimated
Sun 08:03:00 AM 43.2124 162.8625 70° East  Level Estimated
Sun 08:04:00 AM 43.2633 163.0555 70° East  Level Estimated
Sun 08:05:00 AM 43.3139 163.2487 70° East  Level Estimated
Sun 08:06:00 AM 43.3642 163.4423 70° East  Level Estimated
Sun 08:07:00 AM 43.4142 163.6362 70° East  Level Estimated
Sun 08:08:00 AM 43.4638 163.8304 71° East  Level Estimated
Sun 08:09:00 AM 43.5131 164.0250 71° East  Level Estimated
Sun 08:10:00 AM 43.5621 164.2198 71° East  Level Estimated
Sun 08:11:00 AM 43.6107 164.4150 71° East  Level Estimated
Sun 08:11:23 AM 40.3667 167.5667 70° East 607 699 36,000  Level Oakland Oceanic (ODAPS)
Sun 08:23:11 AM 41.0000 170.0000 72° East 610 702 36,000  Level Oakland Oceanic (ODAPS)
Sun 08:25:34 AM 41.1333 170.5000 72° East 608 700 36,000  Level Oakland Oceanic (ODAPS)
Sun 08:39:08 AM 41.8167 173.5000 74° East 606 697 36,000  Level Oakland Oceanic (ODAPS)
Sun 08:52:59 AM 42.4167 176.5333 76° East 604 695 36,000  Level Oakland Oceanic (ODAPS)
Sun 09:06:51 AM 42.9333 179.6000 77° East 599 689 36,000  Level Oakland Oceanic (ODAPS)
Sun 09:08:42 AM 43.0000 180.0000 79° East 587 676 36,000 144 Level Oakland Oceanic (ODAPS)
Sun 09:20:43 AM 43.3500 -177.3333 80° East 577 664 38,000 76 Climbing Oakland Oceanic (ODAPS)
Sun 09:34:56 AM 43.6833 -174.2667 83° East 574 661 38,000  Level Oakland Oceanic (ODAPS)
Sun 09:48:28 AM 43.9167 -171.2833 84° East 545 627 38,000  Level Oakland Oceanic (ODAPS)
Sun 09:54:36 AM 44.0000 -170.0000 94° East 556 640 38,000  Level Oakland Oceanic (ODAPS)
Sun 10:02:20 AM 43.9000 -168.3500 96° East 553 636 38,000  Level Oakland Oceanic (ODAPS)
Sun 10:16:11 AM 43.6500 -165.4500 97° East 549 632 38,000  Level Oakland Oceanic (ODAPS)
Sun 10:30:24 AM 43.3500 -162.6000 100° East 531 611 38,000  Level Oakland Oceanic (ODAPS)
Sun 10:43:12 AM 43.0000 -160.0000 102° East 550 633 38,000  Level Oakland Oceanic (ODAPS)
Sun 10:43:56 AM 42.9833 -159.8500 102° East 551 634 38,000  Level Oakland Oceanic (ODAPS)
Sun 10:57:48 AM 42.5167 -157.0667 104° East 548 631 38,000  Level Oakland Oceanic (ODAPS)
Sun 11:11:39 AM 41.9833 -154.2833 106° East 555 639 38,000  Level Oakland Oceanic (ODAPS)
Sun 11:25:31 AM 41.3833 -151.5667 107° East 545 627 38,000  Level Oakland Oceanic (ODAPS)
Sun 11:33:43 AM 41.0000 -150.0000 94° East 540 621 38,000  Level Oakland Oceanic (ODAPS)
Sun 11:39:28 AM 40.9333 -148.8500 95° East 538 619 38,000  Level Oakland Oceanic (ODAPS)
Sun 11:53:15 AM 40.7167 -146.1333 97° East 530 610 38,000  Level Oakland Oceanic (ODAPS)
Sun 12:07:07 PM 40.4500 -143.4667 99° East 529 609 38,000  Level Oakland Oceanic (ODAPS)
Sun 12:20:59 PM 40.1167 -140.8667 100° East 519 597 38,000  Level Oakland Oceanic (ODAPS)
Sun 12:25:49 PM 40.0000 -140.0000 94° East 523 602 38,000 36 Level Oakland Oceanic (ODAPS)
Sun 12:34:51 PM 39.8833 -138.2667 95° East 525 604 38,500 44 Climbing Oakland Oceanic (ODAPS)
Sun 12:48:43 PM 39.6667 -135.6667 97° East 526 605 39,000 18 Climbing Oakland Oceanic (ODAPS)
Sun 01:02:36 PM 39.4000 -133.0667 99° East 525 604 39,000  Level Oakland Oceanic (ODAPS)
Sun 01:16:27 PM 39.0667 -130.5000 100° East 509 586 39,000  Level Oakland Oceanic (ODAPS)
Sun 01:19:16 PM 39.0000 -130.0000 102° East 510 587 39,000  Level Oakland Oceanic (ODAPS)
Sun 01:30:20 PM 38.6667 -128.0500 103° East 508 585 39,000  Level Oakland Oceanic (ODAPS)
Sun 01:33:30 PM 38.5425 -127.4919 111° Southeast 512 589 39,000  Level Oakland Center
Sun 01:34:00 PM 38.5334 -127.3506 104° East 510 587 39,000  Level FlightAware Transoceanic
Sun 01:34:32 PM 38.5103 -127.3161 103° East 512 589 39,000  Level Oakland Center
Sun 01:35:00 PM 38.5001 -127.1752 104° East 510 587 39,000  Level FlightAware Transoceanic
Sun 01:35:33 PM 38.4783 -127.1411 103° East 511 588 39,000  Level Oakland Center
Sun 01:36:00 PM 38.4667 -127.0000 111° Southeast 508 585 39,000 -98 Level FlightAware Transoceanic
Sun 01:36:34 PM 38.4394 -126.9672 106° East 510 587 38,900  Descending Oakland Center
Sun 01:37:00 PM 38.4158 -126.8324 111° Southeast 508 585 39,000 98 Climbing FlightAware Transoceanic
Sun 01:37:35 PM 38.3881 -126.7989 111° Southeast 512 589 39,000  Level Oakland Center
Sun 01:38:00 PM 38.3646 -126.6650 111° Southeast 508 585 39,000  Level FlightAware Transoceanic
Sun 01:38:37 PM 38.3172 -126.6019 115° Southeast 510 587 39,000  Level Oakland Center
Sun 01:39:38 PM 38.2569 -126.4369 115° Southeast 514 592 39,000 -49 Level Oakland Center
Sun 01:40:39 PM 38.1975 -126.2706 114° Southeast 517 595 38,900  Descending Oakland Center
Sun 01:41:40 PM 38.1336 -126.0981 115° Southeast 516 594 39,000 49 Climbing Oakland Center
Sun 01:42:42 PM 38.0725 -125.9328 115° Southeast 518 596 39,000  Level Oakland Center
Sun 01:43:43 PM 38.0122 -125.7681 115° Southeast 518 596 39,000  Level Oakland Center
Sun 01:44:44 PM 37.9486 -125.6006 116° Southeast 524 603 39,000 -49 Level Oakland Center
Sun 01:45:45 PM 37.8858 -125.4308 115° Southeast 530 610 38,900  Descending Oakland Center
Sun 01:46:47 PM 37.8222 -125.2617 115° Southeast 533 613 39,000  Climbing Oakland Center
Sun 01:47:48 PM 37.7583 -125.0928 116° Southeast 536 617 38,900  Descending Oakland Center
Sun 01:53:13 PM 37.4018 -124.1729 116° Southeast 534 615 39,000 14 Climbing FlightAware ADS-B (KSAC)
Sun 01:54:49 PM 37.2989 -123.9112 116° Southeast 529 609 39,000  Level FlightAware ADS-B (KSAC)
Sun 01:56:33 PM 37.1864 -123.6275 116° Southeast 530 610 39,000  Level FlightAware ADS-B (KSAC)
Sun 01:56:54 PM 37.1482 -123.5320 117° Southeast 530 610 39,000  Level FlightAware ADS-B
Sun 01:57:32 PM 37.1537 -123.5458 116° Southeast 530 610 39,000  Level FlightAware ADS-B (KSAC)
Sun 01:58:05 PM 37.0702 -123.3370 117° Southeast 530 610 39,000  Level FlightAware ADS-B
Sun 01:59:38 PM 36.9681 -123.0840 1000° North 527 606 39,000  Level FlightAware ADS-B
Sun 01:59:51 PM 36.9532 -123.0470 117° Southeast 529 609 39,000  Level FlightAware ADS-B
Sun 02:00:09 PM 36.9499 -123.0393 116° Southeast 526 605 39,000  Level FlightAware ADS-B (KSAC)
Sun 02:02:34 PM 36.7941 -122.6580 117° Southeast 524 603 39,000  Level FlightAware ADS-B (KSAC)
Sun 02:03:10 PM 36.7347 -122.5140 117° Southeast 524 603 39,000  Level FlightAware ADS-B
Sun 02:04:12 PM 36.6673 -122.3510 117° Southeast 523 602 39,000  Level FlightAware ADS-B
Sun 02:04:13 PM 36.6783 -122.3774 117° Southeast 502 578 39,000  Level FlightAware ADS-B (KSAC)
Sun 02:04:42 PM 36.6354 -122.2740 117° Southeast 488 562 39,000  Level FlightAware ADS-B
Sun 02:05:45 PM 36.5823 -122.1464 117° Southeast 479 551 39,000  Level FlightAware ADS-B (KSAC)
Sun 02:07:49 PM 36.4447 -121.8180 118° Southeast 478 550 39,000  Level FlightAware ADS-B
Sun 02:12:09 PM 36.1773 -121.1900 118° Southeast 480 552 39,000  Level FlightAware ADS-B
Sun 02:12:44 PM 36.1404 -121.1040 118° Southeast 480 552 39,000  Level FlightAware ADS-B
Sun 02:20:14 PM 35.6686 -120.0278 123° Southeast 490 564 39,000  Level FlightAware ADS-B
Sun 02:21:03 PM 35.5819 -119.9225 145° Southeast 497 572 39,000  Level FlightAware ADS-B
Sun 02:21:42 PM 35.5233 -119.8718 145° Southeast 509 586 39,000  Level FlightAware ADS-B
Sun 02:22:17 PM 35.4400 -119.7999 145° Southeast 509 586 39,000 -1,037 Level FlightAware ADS-B
Sun 02:23:03 PM 35.3681 -119.7381 145° Southeast 508 585 37,600 -1,047 Descending FlightAware ADS-B
Sun 02:23:43 PM 35.2801 -119.6620 145° Southeast 492 566 37,500 -578 Descending FlightAware ADS-B
Sun 02:24:26 PM 35.2103 -119.6023 145° Southeast 495 570 36,800 -1,571 Descending FlightAware ADS-B
Sun 02:25:07 PM 35.1302 -119.5339 145° Southeast 510 587 35,300 -2,734 Descending FlightAware ADS-B
Sun 02:25:45 PM 35.0439 -119.4603 145° Southeast 511 588 33,200 -3,195 Descending FlightAware ADS-B
Sun 02:26:24 PM 34.9681 -119.3959 145° Southeast 508 585 31,200 -2,966 Descending FlightAware ADS-B
Sun 02:27:12 PM 34.8770 -119.3190 145° Southeast 503 579 28,900 -3,419 Descending FlightAware ADS-B
Sun 02:27:57 PM 34.7910 -119.2460 145° Southeast 509 586 25,900 -3,633 Descending FlightAware ADS-B
Sun 02:29:39 PM 34.6185 -119.1002 145° Southeast 476 548 20,000 -2,538 Descending FlightAware ADS-B
Sun 02:30:59 PM 34.4651 -118.9731 146° Southeast 412 474 18,200 -2,105 Descending FlightAware ADS-B
Sun 02:31:33 PM 34.4129 -118.9308 147° Southeast 428 493 16,000 -3,259 Descending FlightAware ADS-B
Sun 02:32:20 PM 34.3283 -118.8670 149° Southeast 420 483 13,800 -2,340 Descending FlightAware ADS-B
Sun 02:33:13 PM 34.2485 -118.8151 165° South 374 430 12,100 -1,269 Descending FlightAware ADS-B
Sun 02:34:04 PM 34.2005 -118.8101 170° South 323 372 11,600 -674 Descending FlightAware ADS-B
Sun 02:34:42 PM 34.1075 -118.7895 163° South 311 358 11,100 -759 Descending FlightAware ADS-B
Sun 02:35:31 PM 34.0478 -118.7544 128° Southeast 287 330 10,500 -750 Descending FlightAware ADS-B
Sun 02:36:10 PM 34.0333 -118.7004 97° East 273 314 10,000 -700 Descending FlightAware ADS-B
Sun 02:36:31 PM 34.0299 -118.6655 97° East 272 313 9,800 -1,200 Descending FlightAware ADS-B
Sun 02:37:35 PM 34.0213 -118.5754 97° East 283 326 8,300 -1,446 Descending FlightAware ADS-B
Sun 02:37:54 PM 34.0178 -118.5383 96° East 281 323 7,800 -1,350 Descending FlightAware ADS-B
Sun 02:38:15 PM 34.0146 -118.5034 96° East 278 320 7,400 -1,200 Descending FlightAware ADS-B
Sun 02:38:34 PM 34.0119 -118.4749 96° East 277 319 7,000 -1,200 Descending FlightAware ADS-B
Sun 02:39:15 PM 34.0158 -118.4118 81° East 275 316 6,200 -984 Descending FlightAware ADS-B
Sun 02:39:35 PM 34.0197 -118.3832 81° East 267 307 6,000 -231 Descending FlightAware ADS-B
Sun 02:40:07 PM 34.0167 -118.3500 81° East 266 306 6,000 -516 Level Southern California TRACON
Sun 02:41:08 PM 34.0333 -118.2667 76° East 230 265 5,200 -836 Descending Southern California TRACON
Sun 02:42:09 PM 34.0439 -118.1964 80° East 223 257 4,300 -976 Descending Los Angeles Center
Sun 02:43:11 PM 34.0392 -118.1286 95° East 207 238 3,200 -857 Descending Los Angeles Center
Sun 02:44:08 PM 33.9833 -118.1167 170° South 185 213 2,600 -288 Descending Southern California TRACON
Sun 02:45:16 PM 33.9594 -118.1667 240° Southwest 171 197 2,600  Level Los Angeles Center
Sun 02:46:18 PM 33.9533 -118.2294 263° West 185 213 2,600 -435 Level Los Angeles Center
Sun 02:47:20 PM 33.9475 -118.2856 263° West 182 209 1,700 -774 Descending Los Angeles Center
Sun 02:48:22 PM 33.9436 -118.3322 264° West 158 182 1,000 -726 Descending Los Angeles Center
Sun 02:49:24 PM 33.9389 -118.3803 263° West 149 171 200 -774 Descending Los Angeles Center

Login

Don't have an account? Register now (free) for customized features, flight alerts, and more!